createdAt,value
2022-11-30T00:01:14.080Z,8.10
2022-11-30T00:03:40.893Z,8.00
2022-11-30T00:06:10.340Z,7.90
2022-11-30T00:08:37.400Z,7.90
2022-11-30T00:11:17.922Z,7.90
2022-11-30T00:13:44.698Z,7.90
2022-11-30T00:16:11.467Z,7.80
2022-11-30T00:18:38.633Z,7.80
2022-11-30T00:21:08.739Z,7.80
2022-11-30T00:23:37.400Z,7.80
2022-11-30T00:26:05.750Z,7.80
2022-11-30T00:28:34.219Z,7.80
2022-11-30T00:31:03.250Z,7.70
2022-11-30T00:33:33.228Z,7.70
2022-11-30T00:36:01.982Z,7.70
2022-11-30T00:38:28.957Z,7.70
2022-11-30T00:40:56.607Z,7.70
2022-11-30T00:43:23.696Z,7.70
2022-11-30T00:45:50.571Z,7.70
2022-11-30T00:48:17.422Z,7.60
2022-11-30T00:50:44.096Z,7.60
2022-11-30T00:53:10.874Z,7.70
2022-11-30T00:55:37.511Z,7.60
2022-11-30T00:58:04.310Z,7.60
2022-11-30T01:00:30.918Z,7.60
2022-11-30T01:02:59.378Z,7.60
2022-11-30T01:05:26.081Z,7.60
2022-11-30T01:07:52.863Z,7.60
2022-11-30T01:10:20.017Z,7.60
2022-11-30T01:12:46.709Z,7.50
2022-11-30T01:15:13.383Z,7.60
2022-11-30T01:17:40.048Z,7.60
2022-11-30T01:20:08.133Z,7.60
2022-11-30T01:22:35.203Z,7.60
2022-11-30T01:25:02.107Z,7.50
2022-11-30T01:27:28.888Z,7.50
2022-11-30T01:29:55.600Z,7.50
2022-11-30T01:32:22.394Z,7.50
2022-11-30T01:34:49.409Z,7.50
2022-11-30T01:37:16.274Z,7.50
2022-11-30T01:39:42.918Z,7.60
2022-11-30T01:42:16.651Z,7.50
2022-11-30T01:44:55.781Z,7.60
2022-11-30T01:47:51.988Z,7.60
2022-11-30T01:50:28.174Z,7.50
2022-11-30T01:52:57.087Z,7.70
2022-11-30T01:55:31.036Z,7.60
2022-11-30T01:58:15.559Z,7.50
2022-11-30T02:00:46.348Z,7.60
2022-11-30T02:03:34.424Z,7.60
2022-11-30T02:06:01.126Z,7.50
2022-11-30T02:08:29.014Z,7.50
2022-11-30T02:10:59.925Z,7.40
2022-11-30T02:13:51.492Z,7.40
2022-11-30T02:16:55.749Z,7.40
2022-11-30T02:20:07.098Z,7.30
2022-11-30T02:22:54.152Z,7.40
2022-11-30T02:25:49.663Z,7.30
2022-11-30T02:28:34.323Z,7.30
2022-11-30T02:31:04.410Z,7.30
2022-11-30T02:33:33.339Z,7.30
2022-11-30T02:36:02.649Z,7.30
2022-11-30T02:38:30.132Z,7.30
2022-11-30T02:40:56.806Z,7.30
2022-11-30T02:43:26.214Z,7.30
2022-11-30T02:46:05.858Z,7.30
2022-11-30T02:48:42.574Z,7.20
2022-11-30T02:51:12.786Z,7.10
2022-11-30T02:53:39.567Z,7.20
2022-11-30T02:56:06.445Z,7.10
2022-11-30T02:58:33.345Z,7.10
2022-11-30T03:01:00.007Z,7.20
2022-11-30T03:03:26.781Z,7.20
2022-11-30T03:05:53.535Z,7.10
2022-11-30T03:08:20.288Z,7.10
2022-11-30T03:10:46.961Z,7.10
2022-11-30T03:13:13.766Z,7.10
2022-11-30T03:15:40.423Z,7.10
2022-11-30T03:18:07.227Z,7.10
2022-11-30T03:20:33.911Z,7.00
2022-11-30T03:23:01.976Z,7.20
2022-11-30T03:25:29.340Z,7.00
2022-11-30T03:27:56.035Z,7.00
2022-11-30T03:30:22.709Z,6.90
2022-11-30T03:32:50.683Z,6.90
2022-11-30T03:35:17.372Z,6.90
2022-11-30T03:37:44.229Z,6.90
2022-11-30T03:40:11.558Z,6.90
2022-11-30T03:42:38.242Z,6.90
2022-11-30T03:45:05.411Z,6.90
2022-11-30T03:47:32.153Z,6.90
2022-11-30T03:49:58.793Z,6.90
2022-11-30T03:52:25.578Z,7.00
2022-11-30T03:54:52.267Z,7.00
2022-11-30T03:57:18.958Z,7.00
2022-11-30T03:59:45.639Z,6.90
2022-11-30T04:02:12.327Z,7.00
2022-11-30T04:04:39.028Z,7.00
2022-11-30T04:07:05.708Z,7.00
2022-11-30T04:09:32.423Z,7.00
2022-11-30T04:11:59.135Z,7.00
2022-11-30T04:14:25.802Z,6.90
2022-11-30T04:16:52.487Z,7.00
2022-11-30T04:19:19.172Z,7.00
2022-11-30T04:21:45.924Z,7.00
2022-11-30T04:24:12.598Z,7.00
2022-11-30T04:26:39.330Z,7.10
2022-11-30T04:29:06.015Z,7.10
2022-11-30T04:31:32.750Z,7.10
2022-11-30T04:33:59.877Z,7.10
2022-11-30T04:36:26.547Z,7.20
2022-11-30T04:38:53.218Z,7.10
2022-11-30T04:41:19.884Z,7.20
2022-11-30T04:43:46.659Z,7.10
2022-11-30T04:46:13.464Z,7.00
2022-11-30T04:48:40.200Z,7.10
2022-11-30T04:51:08.716Z,7.00
2022-11-30T04:53:36.920Z,7.10
2022-11-30T04:56:08.510Z,7.10
2022-11-30T04:58:35.860Z,7.10
2022-11-30T05:01:02.566Z,7.10
2022-11-30T05:03:29.267Z,7.30
2022-11-30T05:05:56.043Z,7.20
2022-11-30T05:08:22.809Z,7.30
2022-11-30T05:10:55.875Z,7.10
2022-11-30T05:13:26.297Z,7.30
2022-11-30T05:15:55.819Z,7.30
2022-11-30T05:18:23.164Z,7.40
2022-11-30T05:20:51.460Z,7.40
2022-11-30T05:23:18.665Z,7.30
2022-11-30T05:25:46.044Z,7.30
2022-11-30T05:28:13.665Z,7.20
2022-11-30T05:30:42.289Z,7.20
2022-11-30T05:33:09.597Z,7.10
2022-11-30T05:35:36.588Z,7.10
2022-11-30T05:38:03.946Z,7.10
2022-11-30T05:40:32.564Z,7.10
2022-11-30T05:43:00.516Z,7.10
2022-11-30T05:45:27.422Z,7.10
2022-11-30T05:47:54.136Z,7.20
2022-11-30T05:50:21.306Z,7.20
2022-11-30T05:52:48.016Z,7.30
2022-11-30T05:55:14.789Z,7.30
2022-11-30T05:57:41.620Z,7.30
2022-11-30T06:00:09.740Z,7.10
2022-11-30T06:02:36.438Z,7.20
2022-11-30T06:05:03.538Z,7.40
2022-11-30T06:07:30.317Z,7.10
2022-11-30T06:09:57.341Z,7.20
2022-11-30T06:12:24.062Z,7.10
2022-11-30T06:14:53.449Z,7.10
2022-11-30T06:17:20.198Z,7.20
2022-11-30T06:19:46.866Z,7.20
2022-11-30T06:22:13.598Z,7.20
2022-11-30T06:24:40.249Z,7.20
2022-11-30T06:27:07.003Z,7.20
2022-11-30T06:29:33.889Z,7.30
2022-11-30T06:32:00.765Z,7.20
2022-11-30T06:34:27.550Z,7.40
2022-11-30T06:36:54.201Z,7.40
2022-11-30T06:39:43.057Z,7.40
2022-11-30T06:42:07.654Z,7.50
2022-11-30T06:44:34.317Z,7.40
2022-11-30T06:47:00.996Z,7.40
2022-11-30T06:49:28.257Z,7.30
2022-11-30T06:51:54.974Z,7.30
2022-11-30T06:54:21.809Z,7.50
2022-11-30T06:56:48.608Z,7.40
2022-11-30T06:59:15.248Z,7.40
2022-11-30T07:01:42.016Z,7.40
2022-11-30T07:04:09.316Z,7.50
2022-11-30T07:06:36.356Z,7.50
2022-11-30T07:09:03.211Z,7.40
2022-11-30T07:11:30.172Z,7.40
2022-11-30T07:13:57.038Z,7.40
2022-11-30T07:16:23.843Z,7.30
2022-11-30T07:18:50.575Z,7.40
2022-11-30T07:21:17.200Z,7.30
2022-11-30T07:24:02.540Z,7.30
2022-11-30T07:26:29.299Z,7.40
2022-11-30T07:28:58.372Z,7.40
2022-11-30T07:31:30.455Z,7.50
2022-11-30T07:33:58.699Z,7.40
2022-11-30T07:36:27.199Z,7.50
2022-11-30T07:38:53.917Z,7.40
2022-11-30T07:41:20.657Z,7.40
2022-11-30T07:43:47.404Z,7.20
2022-11-30T07:46:15.706Z,7.20
2022-11-30T07:48:44.031Z,7.20
2022-11-30T07:51:17.233Z,7.20
2022-11-30T07:53:44.174Z,7.20
2022-11-30T07:56:13.489Z,7.30
2022-11-30T07:58:41.641Z,7.30
2022-11-30T08:01:11.371Z,7.20
2022-11-30T08:03:38.408Z,7.20
2022-11-30T08:06:11.637Z,7.30
2022-11-30T08:08:42.475Z,7.20
2022-11-30T08:11:11.105Z,7.20
2022-11-30T08:13:37.944Z,7.20
2022-11-30T08:16:07.759Z,7.20
2022-11-30T08:18:34.819Z,7.40
2022-11-30T08:21:04.067Z,7.30
2022-11-30T08:23:32.786Z,7.30
2022-11-30T08:26:07.611Z,7.30
2022-11-30T08:28:37.822Z,7.30
2022-11-30T08:31:08.053Z,7.30
2022-11-30T08:33:35.915Z,7.40
2022-11-30T08:36:09.772Z,7.30
2022-11-30T08:38:37.088Z,7.40
2022-11-30T08:41:05.026Z,7.40
2022-11-30T08:43:31.850Z,7.40
2022-11-30T08:45:58.618Z,7.40
2022-11-30T08:48:25.692Z,7.40
2022-11-30T08:50:52.568Z,7.60
2022-11-30T08:53:19.321Z,7.50
2022-11-30T08:55:56.688Z,7.40
2022-11-30T08:58:23.424Z,7.50
2022-11-30T09:03:22.288Z,7.50
2022-11-30T09:05:49.024Z,7.60
2022-11-30T09:08:15.764Z,7.50
2022-11-30T09:10:42.469Z,7.50
2022-11-30T09:13:09.170Z,7.70
2022-11-30T09:15:35.913Z,7.70
2022-11-30T09:18:02.664Z,7.80
2022-11-30T09:20:29.353Z,7.80
2022-11-30T09:22:55.995Z,7.70
2022-11-30T09:25:22.680Z,7.70
2022-11-30T09:27:49.369Z,7.70
2022-11-30T09:30:16.207Z,7.80
2022-11-30T09:32:42.915Z,7.90
2022-11-30T09:35:12.789Z,7.90
2022-11-30T09:37:40.336Z,7.90
2022-11-30T09:40:07.911Z,7.90
2022-11-30T09:42:58.666Z,8.00
2022-11-30T09:45:33.459Z,8.00
2022-11-30T09:48:21.603Z,8.10
2022-11-30T09:50:50.631Z,8.00
2022-11-30T09:53:47.396Z,8.10
2022-11-30T09:56:30.991Z,8.00
2022-11-30T09:59:07.096Z,8.00
2022-11-30T10:01:37.454Z,8.00
2022-11-30T10:04:04.543Z,7.90
2022-11-30T10:06:49.346Z,8.00
2022-11-30T10:09:34.127Z,8.00
2022-11-30T10:12:05.725Z,8.00
2022-11-30T10:14:47.449Z,8.00
2022-11-30T10:17:31.315Z,8.10
2022-11-30T10:20:36.850Z,8.20
2022-11-30T10:23:32.260Z,8.10
2022-11-30T10:26:06.476Z,8.00
2022-11-30T10:28:46.864Z,8.00
2022-11-30T10:31:15.505Z,8.10
2022-11-30T10:33:51.438Z,8.00
2022-11-30T10:36:41.439Z,8.00
2022-11-30T10:39:31.546Z,8.00
2022-11-30T10:42:12.523Z,8.00
2022-11-30T10:44:43.439Z,8.00
2022-11-30T10:47:39.266Z,7.90
2022-11-30T10:50:07.538Z,7.90
2022-11-30T10:52:53.740Z,7.90
2022-11-30T10:55:26.188Z,8.00
2022-11-30T10:58:05.200Z,8.00
2022-11-30T11:00:32.498Z,8.00
2022-11-30T11:02:59.481Z,8.00
2022-11-30T11:05:31.092Z,8.00
2022-11-30T11:08:27.281Z,7.90
2022-11-30T11:10:54.084Z,8.10
2022-11-30T11:13:35.772Z,8.20
2022-11-30T11:16:04.652Z,8.10
2022-11-30T11:18:35.954Z,8.20
2022-11-30T11:21:19.364Z,8.10
2022-11-30T11:23:48.645Z,8.10
2022-11-30T11:26:19.764Z,8.10
2022-11-30T11:28:50.177Z,8.00
2022-11-30T11:31:19.148Z,8.00
2022-11-30T11:33:54.124Z,7.90
2022-11-30T11:36:27.285Z,7.90
2022-11-30T11:38:54.331Z,7.90
2022-11-30T11:41:37.385Z,7.90
2022-11-30T11:44:10.172Z,7.90
2022-11-30T11:46:52.122Z,8.00
2022-11-30T11:49:22.843Z,8.00
2022-11-30T11:52:20.448Z,8.10
2022-11-30T11:54:58.333Z,8.10
2022-11-30T11:57:53.447Z,8.10
2022-11-30T12:00:23.378Z,8.10
2022-11-30T12:03:08.660Z,8.20
2022-11-30T12:05:43.798Z,8.30
2022-11-30T12:08:41.880Z,8.40
2022-11-30T12:11:10.591Z,8.20
2022-11-30T12:13:42.555Z,8.20
2022-11-30T12:16:12.636Z,8.30
2022-11-30T12:19:17.523Z,8.10
2022-11-30T12:22:03.436Z,8.10
2022-11-30T12:24:57.413Z,8.00
2022-11-30T12:28:04.338Z,8.20
2022-11-30T12:30:36.910Z,8.30
2022-11-30T12:33:25.527Z,8.40
2022-11-30T12:36:07.726Z,8.40
2022-11-30T12:38:38.065Z,8.50
2022-11-30T12:41:35.509Z,8.40
2022-11-30T12:44:14.596Z,8.30
2022-11-30T12:46:50.065Z,8.30
2022-11-30T12:50:03.724Z,8.30
2022-11-30T12:52:58.035Z,8.40
2022-11-30T12:55:28.922Z,8.40
2022-11-30T12:58:16.160Z,8.30
2022-11-30T13:01:12.367Z,8.30
2022-11-30T13:04:02.088Z,8.30
2022-11-30T13:06:55.102Z,8.30
2022-11-30T13:09:34.959Z,8.20
2022-11-30T13:12:15.482Z,8.20
2022-11-30T13:14:42.726Z,8.20
2022-11-30T13:17:17.613Z,8.20
2022-11-30T13:20:04.618Z,8.30
2022-11-30T13:23:08.239Z,8.40
2022-11-30T13:26:08.924Z,8.20
2022-11-30T13:28:55.492Z,8.10
2022-11-30T13:31:54.327Z,8.10
2022-11-30T13:34:29.684Z,8.30
2022-11-30T13:37:05.676Z,8.30
2022-11-30T13:39:52.797Z,8.40
2022-11-30T13:42:34.832Z,8.40
2022-11-30T13:45:13.690Z,8.40
2022-11-30T13:47:51.651Z,8.30
2022-11-30T13:50:33.799Z,8.30
2022-11-30T13:53:00.652Z,8.20
2022-11-30T13:56:10.839Z,8.30
2022-11-30T13:59:16.332Z,8.30
2022-11-30T14:01:43.190Z,8.40
2022-11-30T14:04:16.127Z,8.50
2022-11-30T14:06:42.817Z,8.50
2022-11-30T14:09:40.529Z,8.50
2022-11-30T14:12:47.141Z,8.40
2022-11-30T14:15:38.040Z,8.30
2022-11-30T14:18:07.580Z,8.40
2022-11-30T14:20:38.849Z,8.40
2022-11-30T14:23:08.766Z,8.40
2022-11-30T14:25:35.883Z,8.50
2022-11-30T14:28:05.272Z,8.50
2022-11-30T14:30:33.364Z,8.30
2022-11-30T14:33:27.239Z,8.40
2022-11-30T14:35:59.868Z,8.30
2022-11-30T14:38:30.718Z,8.30
2022-11-30T14:40:58.427Z,8.20
2022-11-30T14:43:25.184Z,8.20
2022-11-30T14:46:05.097Z,8.30
2022-11-30T14:48:33.936Z,8.30
2022-11-30T14:51:03.827Z,8.40
2022-11-30T14:53:52.997Z,8.40
2022-11-30T14:56:46.406Z,8.30
2022-11-30T14:59:26.247Z,8.30
2022-11-30T15:01:58.871Z,8.20
2022-11-30T15:04:27.490Z,8.10
2022-11-30T15:06:55.990Z,8.10
2022-11-30T15:09:30.710Z,8.20
2022-11-30T15:11:58.302Z,8.10
2022-11-30T15:14:24.977Z,8.10
2022-11-30T15:16:54.380Z,8.10
2022-11-30T15:19:27.348Z,8.20
2022-11-30T15:21:55.550Z,8.00
2022-11-30T15:24:22.455Z,8.00
2022-11-30T15:26:55.573Z,8.00
2022-11-30T15:29:27.245Z,7.90
2022-11-30T15:31:55.718Z,8.00
2022-11-30T15:34:27.317Z,7.90
2022-11-30T15:36:59.069Z,7.90
2022-11-30T15:39:28.302Z,8.00
2022-11-30T15:41:57.130Z,8.10
2022-11-30T15:44:37.330Z,8.00
2022-11-30T15:47:06.533Z,8.00
2022-11-30T15:49:36.228Z,8.00
2022-11-30T15:52:17.154Z,8.00
2022-11-30T15:54:55.361Z,7.90
2022-11-30T15:57:24.171Z,7.80
2022-11-30T16:00:20.843Z,7.80
2022-11-30T16:02:47.767Z,7.90
2022-11-30T16:05:18.226Z,7.90
2022-11-30T16:07:57.475Z,8.00
2022-11-30T16:10:35.018Z,7.90
2022-11-30T16:13:02.146Z,7.90
2022-11-30T16:15:31.243Z,8.00
2022-11-30T16:18:20.943Z,8.00
2022-11-30T16:21:00.493Z,8.00
2022-11-30T16:23:28.498Z,8.00
2022-11-30T16:25:55.706Z,7.90
2022-11-30T16:28:23.020Z,7.80
2022-11-30T16:30:50.650Z,7.70
2022-11-30T16:33:26.749Z,7.70
2022-11-30T16:35:57.453Z,7.80
2022-11-30T16:38:25.851Z,7.90
2022-11-30T16:40:56.232Z,7.80
2022-11-30T16:43:25.850Z,7.80
2022-11-30T16:45:52.615Z,7.90
2022-11-30T16:48:20.081Z,7.90
2022-11-30T16:50:46.929Z,7.80
2022-11-30T16:53:17.453Z,7.80
2022-11-30T16:55:44.410Z,7.70
2022-11-30T16:58:11.230Z,7.80
2022-11-30T17:00:40.081Z,7.80
2022-11-30T17:03:19.186Z,7.90
2022-11-30T17:05:45.828Z,8.00
2022-11-30T17:08:12.510Z,7.90
2022-11-30T17:10:39.288Z,8.00
2022-11-30T17:13:05.994Z,7.90
2022-11-30T17:15:32.779Z,7.90
2022-11-30T17:17:59.506Z,7.90
2022-11-30T17:20:27.735Z,7.90
2022-11-30T17:22:54.377Z,7.90
2022-11-30T17:25:22.700Z,7.80
2022-11-30T17:27:50.438Z,7.80
2022-11-30T17:30:20.444Z,7.90
2022-11-30T17:32:47.906Z,7.80
2022-11-30T17:35:14.933Z,7.90
2022-11-30T17:37:41.617Z,8.00
2022-11-30T17:40:11.393Z,8.00
2022-11-30T17:42:38.268Z,8.10
2022-11-30T17:45:06.633Z,8.10
2022-11-30T17:47:33.304Z,7.80
2022-11-30T17:50:00.015Z,7.90
2022-11-30T17:52:26.715Z,7.80
2022-11-30T17:54:53.423Z,7.80
2022-11-30T17:57:20.262Z,7.80
2022-11-30T17:59:47.321Z,7.90
2022-11-30T18:02:14.067Z,7.90
2022-11-30T18:04:40.882Z,7.90
2022-11-30T18:07:07.617Z,7.90
2022-11-30T18:09:37.942Z,7.90
2022-11-30T18:12:09.742Z,7.80
2022-11-30T18:14:36.416Z,7.80
2022-11-30T18:17:03.179Z,7.70
2022-11-30T18:19:29.874Z,7.70
2022-11-30T18:21:56.560Z,7.70
2022-11-30T18:24:25.565Z,7.70
2022-11-30T18:26:52.901Z,7.70
2022-11-30T18:29:19.703Z,7.60
2022-11-30T18:31:48.514Z,7.50
2022-11-30T18:34:15.371Z,7.60
2022-11-30T18:36:42.840Z,7.50
2022-11-30T18:39:09.770Z,7.60
2022-11-30T18:41:36.663Z,7.60
2022-11-30T18:44:03.401Z,7.60
2022-11-30T18:46:30.557Z,7.60
2022-11-30T18:48:59.063Z,7.50
2022-11-30T18:51:27.769Z,7.60
2022-11-30T18:53:57.780Z,7.70
2022-11-30T18:56:26.266Z,7.70
2022-11-30T18:59:05.298Z,7.70
2022-11-30T19:01:32.524Z,7.60
2022-11-30T19:04:02.014Z,7.60
2022-11-30T19:06:30.116Z,7.50
2022-11-30T19:08:57.530Z,7.60
2022-11-30T19:11:24.451Z,7.60
2022-11-30T19:13:55.699Z,7.60
2022-11-30T19:16:24.504Z,7.70
2022-11-30T19:18:52.196Z,7.60
2022-11-30T19:21:20.575Z,7.70
2022-11-30T19:23:48.314Z,7.70
2022-11-30T19:26:15.724Z,7.70
2022-11-30T19:28:43.909Z,7.60
2022-11-30T19:31:13.776Z,7.60
2022-11-30T19:33:42.736Z,7.60
2022-11-30T19:36:14.172Z,7.70
2022-11-30T19:38:40.898Z,7.70
2022-11-30T19:41:13.446Z,7.70
2022-11-30T19:43:40.584Z,7.60
2022-11-30T19:46:09.893Z,7.60
2022-11-30T19:48:37.070Z,7.50
2022-11-30T19:51:18.062Z,7.70
2022-11-30T19:53:45.761Z,7.60
2022-11-30T19:56:15.123Z,7.60
2022-11-30T19:58:46.181Z,7.60
2022-11-30T20:01:14.319Z,7.70
2022-11-30T20:03:41.608Z,7.60
2022-11-30T20:06:08.414Z,7.70
2022-11-30T20:08:40.021Z,7.70
2022-11-30T20:11:11.105Z,7.70
2022-11-30T20:13:38.337Z,7.50
2022-11-30T20:16:13.713Z,7.70
2022-11-30T20:18:45.666Z,7.70
2022-11-30T20:21:14.249Z,7.50
2022-11-30T20:23:41.891Z,7.40
2022-11-30T20:26:16.340Z,7.50
2022-11-30T20:28:43.601Z,7.60
2022-11-30T20:31:11.776Z,7.40
2022-11-30T20:33:39.237Z,7.40
2022-11-30T20:36:08.117Z,7.40
2022-11-30T20:38:35.708Z,7.40
2022-11-30T20:41:02.782Z,7.50
2022-11-30T20:43:29.805Z,7.50
2022-11-30T20:45:56.607Z,7.40
2022-11-30T20:48:23.315Z,7.40
2022-11-30T20:51:14.068Z,7.30
2022-11-30T20:53:36.647Z,7.50
2022-11-30T20:56:04.035Z,7.40
2022-11-30T20:58:30.933Z,7.40
2022-11-30T21:00:59.523Z,7.20
2022-11-30T21:03:26.808Z,7.20
2022-11-30T21:05:53.645Z,7.20
2022-11-30T21:08:20.496Z,7.40
2022-11-30T21:10:47.178Z,7.30
2022-11-30T21:13:13.890Z,7.40
2022-11-30T21:15:40.558Z,7.40
2022-11-30T21:18:07.536Z,7.40
2022-11-30T21:20:34.617Z,7.40
2022-11-30T21:23:01.320Z,7.40
2022-11-30T21:25:28.005Z,7.40
2022-11-30T21:27:54.675Z,7.30
2022-11-30T21:30:21.382Z,7.20
2022-11-30T21:32:48.094Z,7.30
2022-11-30T21:35:14.881Z,7.30
2022-11-30T21:37:41.560Z,7.10
2022-11-30T21:40:09.049Z,7.10
2022-11-30T21:42:35.716Z,7.10
2022-11-30T21:45:02.474Z,7.10
2022-11-30T21:47:33.397Z,7.20
2022-11-30T21:50:00.149Z,7.30
2022-11-30T21:52:27.435Z,7.30
2022-11-30T21:54:56.282Z,7.30
2022-11-30T21:57:23.566Z,7.30
2022-11-30T21:59:50.656Z,7.30
2022-11-30T22:02:17.431Z,7.30
2022-11-30T22:04:44.204Z,7.40
2022-11-30T22:07:13.877Z,7.30
2022-11-30T22:09:40.788Z,7.30
2022-11-30T22:12:07.482Z,7.20
2022-11-30T22:14:36.171Z,7.10
2022-11-30T22:17:03.009Z,7.10
2022-11-30T22:19:29.668Z,7.10
2022-11-30T22:21:56.708Z,7.10
2022-11-30T22:24:23.372Z,6.90
2022-11-30T22:26:50.137Z,7.10
2022-11-30T22:29:19.957Z,7.10
2022-11-30T22:31:49.061Z,6.90
2022-11-30T22:34:16.333Z,6.80
2022-11-30T22:36:44.425Z,6.70
2022-11-30T22:39:19.598Z,6.70
2022-11-30T22:41:54.280Z,6.90
2022-11-30T22:44:22.197Z,6.80
2022-11-30T22:46:49.135Z,6.80
2022-11-30T22:49:20.665Z,6.90
2022-11-30T22:51:48.262Z,6.80
2022-11-30T22:54:15.285Z,6.70
2022-11-30T22:56:42.145Z,6.50
2022-11-30T22:59:17.887Z,6.40
2022-11-30T23:01:47.036Z,6.50
2022-11-30T23:04:16.858Z,6.60
2022-11-30T23:06:44.542Z,6.50
2022-11-30T23:09:14.847Z,6.50
2022-11-30T23:11:42.037Z,6.70
2022-11-30T23:14:09.635Z,6.70
2022-11-30T23:16:37.095Z,6.60
2022-11-30T23:19:04.859Z,6.50
2022-11-30T23:21:39.068Z,6.60
2022-11-30T23:24:12.039Z,6.40
2022-11-30T23:26:39.087Z,6.20
2022-11-30T23:29:09.881Z,6.20
2022-11-30T23:31:38.993Z,6.20
2022-11-30T23:34:08.474Z,6.30
2022-11-30T23:36:36.209Z,6.10
2022-11-30T23:39:09.021Z,6.20
2022-11-30T23:41:36.278Z,6.20
2022-11-30T23:44:03.701Z,6.10
2022-11-30T23:46:31.046Z,6.10
2022-11-30T23:48:57.932Z,6.00
2022-11-30T23:51:25.349Z,6.00
2022-11-30T23:53:52.422Z,6.00
2022-11-30T23:56:20.727Z,6.20
2022-11-30T23:58:48.011Z,6.20
